Main page
METAR-TAF:

METAR-TAF

Airports :

Kingston, Jamaica

Norman Manley International Airport

latitude: 17-56N, longitude: 076-47W, elevation: 3 m

Current weather observation

The report was made 12 minutes ago, at 05:00 UTC
Wind 4 kt from the East
Temperature 26°C
Humidity 74%
Pressure 1013 hPa
Visibility 10 km or more
Few clouds at a height of 2200 ft

METAR: MKJP 260500Z 10004KT 9999 FEW022 26/21 Q1013

Time: 00:12 (05:12 UTC)

Forecast

The report was made 5 hours and 57 minutes ago, at 23:15 UTC
Forecast valid from 26 at 00 UTC to 26 at 24 UTC
Wind 5 kt from the North
Visibility 10 km or more
Few clouds at a height of 2200 ft
Few clouds at a height of 2400 ft, Cumulonimbus.
Scattered clouds at a height of 3500 ft
Becoming
from 26 at 14 UTC to 26 at 16 UTC
Wind 8 kt from the South
Scattered clouds at a height of 2000 ft
Few clouds at a height of 2200 ft, Cumulonimbus.

TAF: MKJP 252315Z 2600/2624 35005KT 9999 FEW022 FEW024CB SCT035 BECMG 2614/2616 18008KT SCT020 FEW022CB

Weather observations and forecasts of more than 4000 airports (METAR and TAF reports).

The available stations are represented by yellow and red dots on the map.

Hover mouse over dot to see the name of the station.

Then click to see weather observations and forecasts.

To change the map : click on the green buttons with a black cross to zoom in, on the green button with a dash to zoom out, or on the green arrows for adjacent maps.


METAR-TAF: